Time,TemperatureF,DewpointF,PressureIn,WindDirection,WindDirectionDegrees,WindSpeedMPH,WindSpeedGustMPH,Humidity,HourlyPrecipIn,Conditions,Clouds,dailyrainin,SolarRadiationWatts/m^2,SoftwareType,DateUTC
2013-07-15 00:02:00,70.0,68.0,-100.00,South,189,0.0,5.0,93,0.01,,,0.09,0.000000,,2013-07-15 05:02:00,
2013-07-15 00:32:00,69.0,67.0,-100.00,SW,232,0.0,2.0,93,0.00,,,0.09,0.000000,,2013-07-15 05:32:00,
2013-07-15 00:43:00,69.0,67.0,-100.00,SW,232,0.0,2.0,93,0.00,,,0.09,0.000000,,2013-07-15 05:43:00,
2013-07-15 00:53:00,69.0,67.0,-100.00,SW,232,0.0,2.0,93,0.00,,,0.09,0.000000,,2013-07-15 05:53:00,
2013-07-15 01:02:00,69.0,67.0,-100.00,SW,232,0.0,2.0,93,0.00,,,0.09,0.000000,,2013-07-15 06:02:00,
2013-07-15 01:32:00,69.0,67.0,-100.00,North,353,0.0,0.0,94,0.00,,,0.09,0.000000,,2013-07-15 06:32:00,
2013-07-15 01:42:00,69.0,67.0,-100.00,North,353,0.0,0.0,94,0.00,,,0.09,0.000000,,2013-07-15 06:42:00,
2013-07-15 01:53:00,69.0,67.0,-100.00,North,353,0.0,0.0,94,0.00,,,0.09,0.000000,,2013-07-15 06:53:00,
2013-07-15 02:01:00,69.0,67.0,-100.00,North,353,0.0,0.0,94,0.00,,,0.09,0.000000,,2013-07-15 07:01:00,
2013-07-15 02:33:00,68.0,66.0,-100.00,NW,321,0.0,1.0,94,0.00,,,0.09,0.000000,,2013-07-15 07:33:00,
2013-07-15 02:44:00,68.0,66.0,-100.00,NW,321,0.0,1.0,94,0.00,,,0.09,0.000000,,2013-07-15 07:44:00,
2013-07-15 02:53:00,68.0,66.0,-100.00,NW,321,0.0,1.0,94,0.00,,,0.09,0.000000,,2013-07-15 07:53:00,
2013-07-15 03:01:00,68.0,66.0,-100.00,NW,321,0.0,1.0,94,0.00,,,0.09,0.000000,,2013-07-15 08:01:00,
2013-07-15 03:32:00,68.0,66.0,-100.00,SSW,195,0.0,2.0,94,0.00,,,0.09,0.000000,,2013-07-15 08:32:00,
2013-07-15 03:43:00,68.0,66.0,-100.00,SSW,195,0.0,2.0,94,0.00,,,0.09,0.000000,,2013-07-15 08:43:00,
2013-07-15 03:53:00,68.0,66.0,-100.00,SSW,195,0.0,2.0,94,0.00,,,0.09,0.000000,,2013-07-15 08:53:00,
2013-07-15 04:02:00,68.0,66.0,-100.00,SSW,195,0.0,2.0,94,0.00,,,0.09,0.000000,,2013-07-15 09:02:00,
2013-07-15 04:32:00,69.0,67.0,-100.00,NNE,19,0.0,2.0,94,0.00,,,0.09,0.000000,,2013-07-15 09:32:00,
2013-07-15 04:43:00,69.0,67.0,-100.00,NNE,19,0.0,2.0,94,0.00,,,0.09,0.000000,,2013-07-15 09:43:00,
2013-07-15 04:52:00,69.0,67.0,-100.00,NNE,19,0.0,2.0,94,0.00,,,0.09,0.000000,,2013-07-15 09:52:00,
2013-07-15 05:02:00,69.0,67.0,-100.00,NNE,19,0.0,2.0,94,0.00,,,0.09,0.000000,,2013-07-15 10:02:00,
2013-07-15 05:32:00,69.0,67.0,-100.00,ENE,76,1.0,3.0,94,0.00,,,0.09,0.000000,,2013-07-15 10:32:00,
2013-07-15 05:43:00,69.0,67.0,-100.00,ENE,76,1.0,3.0,94,0.00,,,0.09,0.000000,,2013-07-15 10:43:00,
2013-07-15 05:53:00,69.0,67.0,-100.00,ENE,76,1.0,3.0,94,0.00,,,0.09,0.000000,,2013-07-15 10:53:00,
2013-07-15 06:02:00,69.0,67.0,-100.00,ENE,76,1.0,3.0,94,0.00,,,0.09,0.000000,,2013-07-15 11:02:00,
2013-07-15 06:32:00,69.0,67.0,-100.00,ENE,66,1.0,4.0,94,0.00,,,0.09,1.000000,,2013-07-15 11:32:00,
2013-07-15 06:42:00,69.0,67.0,-100.00,ENE,66,1.0,4.0,94,0.00,,,0.09,1.000000,,2013-07-15 11:42:00,
2013-07-15 06:52:00,69.0,67.0,-100.00,ENE,66,1.0,4.0,94,0.00,,,0.09,1.000000,,2013-07-15 11:52:00,
2013-07-15 07:01:00,69.0,67.0,-100.00,ENE,66,1.0,4.0,94,0.00,,,0.09,1.000000,,2013-07-15 12:01:00,
2013-07-15 07:33:00,73.0,71.0,-100.00,ENE,68,1.0,5.0,92,0.00,,,0.08,51.000000,,2013-07-15 12:33:00,
2013-07-15 07:42:00,73.0,71.0,-100.00,ENE,68,1.0,5.0,92,0.00,,,0.08,51.000000,,2013-07-15 12:42:00,
2013-07-15 07:53:00,73.0,71.0,-100.00,ENE,68,1.0,5.0,92,0.00,,,0.08,51.000000,,2013-07-15 12:53:00,
2013-07-15 08:01:00,73.0,71.0,-100.00,ENE,68,1.0,5.0,92,0.00,,,0.08,51.000000,,2013-07-15 13:01:00,
2013-07-15 08:33:00,77.0,72.0,-100.00,East,86,4.0,7.0,85,0.00,,,0.08,197.000000,,2013-07-15 13:33:00,
2013-07-15 08:43:00,77.0,72.0,-100.00,East,86,4.0,7.0,85,0.00,,,0.08,197.000000,,2013-07-15 13:43:00,
2013-07-15 08:53:00,77.0,72.0,-100.00,East,86,4.0,7.0,85,0.00,,,0.08,197.000000,,2013-07-15 13:53:00,
2013-07-15 09:02:00,77.0,72.0,-100.00,East,86,4.0,7.0,85,0.00,,,0.08,197.000000,,2013-07-15 14:02:00,
2013-07-15 09:33:00,81.0,73.0,-100.00,ESE,105,4.0,10.0,77,0.00,,,0.08,359.000000,,2013-07-15 14:33:00,
2013-07-15 09:42:00,81.0,73.0,-100.00,ESE,105,4.0,10.0,77,0.00,,,0.08,359.000000,,2013-07-15 14:42:00,
2013-07-15 10:01:00,81.0,73.0,-100.00,ESE,105,4.0,10.0,77,0.00,,,0.08,359.000000,,2013-07-15 15:01:00,
2013-07-15 10:41:00,82.0,73.0,-100.00,East,91,5.0,10.0,75,0.00,,,0.08,372.000000,,2013-07-15 15:41:00,
2013-07-15 10:53:00,82.0,73.0,-100.00,East,91,5.0,10.0,75,0.00,,,0.08,372.000000,,2013-07-15 15:53:00,
2013-07-15 11:07:00,82.0,73.0,-100.00,East,91,5.0,10.0,75,0.00,,,0.08,372.000000,,2013-07-15 16:07:00,
2013-07-15 11:33:00,83.0,72.0,-100.00,East,93,6.0,11.0,69,0.00,,,0.08,437.000000,,2013-07-15 16:33:00,
2013-07-15 11:49:00,83.0,72.0,-100.00,East,93,6.0,11.0,69,0.00,,,0.08,437.000000,,2013-07-15 16:49:00,
2013-07-15 12:05:00,83.0,72.0,-100.00,East,93,6.0,11.0,69,0.00,,,0.08,437.000000,,2013-07-15 17:05:00,
2013-07-15 12:37:00,85.0,70.0,-100.00,East,86,5.0,11.0,62,0.00,,,0.08,647.000000,,2013-07-15 17:37:00,
2013-07-15 13:00:00,85.0,70.0,-100.00,East,86,5.0,11.0,62,0.00,,,0.08,647.000000,,2013-07-15 18:00:00,
2013-07-15 13:05:00,85.0,70.0,-100.00,East,86,5.0,11.0,62,0.00,,,0.08,647.000000,,2013-07-15 18:05:00,
2013-07-15 13:45:00,87.0,71.0,-100.00,East,81,6.0,11.0,60,0.00,,,0.08,737.000000,,2013-07-15 18:45:00,
2013-07-15 13:59:00,87.0,71.0,-100.00,East,81,6.0,11.0,60,0.00,,,0.08,737.000000,,2013-07-15 18:59:00,
2013-07-15 14:05:00,87.0,71.0,-100.00,East,81,6.0,11.0,60,0.00,,,0.08,737.000000,,2013-07-15 19:05:00,
2013-07-15 14:49:00,89.0,73.0,-100.00,East,79,5.0,11.0,60,0.00,,,0.08,598.000000,,2013-07-15 19:49:00,
2013-07-15 14:56:00,89.0,73.0,-100.00,East,79,5.0,11.0,60,0.00,,,0.08,598.000000,,2013-07-15 19:56:00,
2013-07-15 15:37:00,88.0,70.0,-100.00,ENE,69,4.0,12.0,56,0.00,,,0.08,693.000000,,2013-07-15 20:37:00,
2013-07-15 15:43:00,88.0,70.0,-100.00,ENE,69,4.0,12.0,56,0.00,,,0.08,693.000000,,2013-07-15 20:43:00,
2013-07-15 15:58:00,88.0,70.0,-100.00,ENE,69,4.0,12.0,56,0.00,,,0.08,693.000000,,2013-07-15 20:58:00,
2013-07-15 16:40:00,86.0,72.0,-100.00,ESE,103,3.0,12.0,64,0.00,,,0.08,383.000000,,2013-07-15 21:40:00,
2013-07-15 16:48:00,86.0,72.0,-100.00,ESE,103,3.0,12.0,64,0.00,,,0.08,383.000000,,2013-07-15 21:48:00,
2013-07-15 17:01:00,86.0,72.0,-100.00,ESE,103,3.0,12.0,64,0.00,,,0.08,383.000000,,2013-07-15 22:01:00,
2013-07-15 17:35:00,76.0,72.0,-100.00,SSW,199,2.0,11.0,86,0.02,,,0.10,96.000000,,2013-07-15 22:35:00,
2013-07-15 17:44:00,76.0,72.0,-100.00,SSW,199,2.0,11.0,86,0.02,,,0.10,96.000000,,2013-07-15 22:44:00,
2013-07-15 17:54:00,76.0,72.0,-100.00,SSW,199,2.0,11.0,86,0.02,,,0.10,96.000000,,2013-07-15 22:54:00,
2013-07-15 18:06:00,76.0,72.0,-100.00,SSW,199,2.0,11.0,86,0.02,,,0.10,96.000000,,2013-07-15 23:06:00,
2013-07-15 18:40:00,75.0,72.0,-100.00,SE,127,1.0,6.0,91,0.04,,,0.07,44.000000,,2013-07-15 23:40:00,
2013-07-15 18:50:00,75.0,72.0,-100.00,SE,127,1.0,6.0,91,0.04,,,0.07,44.000000,,2013-07-15 23:50:00,
2013-07-15 19:03:00,75.0,72.0,-100.00,SE,127,1.0,6.0,91,0.04,,,0.07,44.000000,,2013-07-16 00:03:00,
2013-07-15 19:34:00,75.0,72.0,-100.00,ESE,116,1.0,4.0,91,0.00,,,0.07,54.000000,,2013-07-16 00:34:00,
2013-07-15 19:50:00,75.0,72.0,-100.00,ESE,116,1.0,4.0,91,0.00,,,0.07,54.000000,,2013-07-16 00:50:00,
2013-07-15 20:08:00,75.0,72.0,-100.00,ESE,116,1.0,4.0,91,0.00,,,0.07,54.000000,,2013-07-16 01:08:00,
2013-07-15 20:38:00,75.0,73.0,-100.00,ENE,67,0.0,4.0,92,0.00,,,0.07,20.000000,,2013-07-16 01:38:00,
2013-07-15 20:49:00,75.0,73.0,-100.00,ENE,67,0.0,4.0,92,0.00,,,0.07,20.000000,,2013-07-16 01:49:00,
2013-07-15 21:02:00,75.0,73.0,-100.00,ENE,67,0.0,4.0,92,0.00,,,0.07,20.000000,,2013-07-16 02:02:00,
2013-07-15 21:35:00,74.0,72.0,-100.00,ENE,71,2.0,4.0,93,0.01,,,0.08,0.000000,,2013-07-16 02:35:00,
2013-07-15 21:51:00,74.0,72.0,-100.00,ENE,71,2.0,4.0,93,0.01,,,0.08,0.000000,,2013-07-16 02:51:00,
2013-07-15 22:07:00,74.0,72.0,-100.00,ENE,71,2.0,4.0,93,0.01,,,0.08,0.000000,,2013-07-16 03:07:00,
2013-07-15 22:41:00,73.0,71.0,-100.00,ENE,70,0.0,4.0,93,0.00,,,0.08,0.000000,,2013-07-16 03:41:00,
2013-07-15 22:49:00,73.0,71.0,-100.00,ENE,70,0.0,4.0,93,0.00,,,0.08,0.000000,,2013-07-16 03:49:00,
2013-07-15 22:58:00,73.0,71.0,-100.00,ENE,70,0.0,4.0,93,0.00,,,0.08,0.000000,,2013-07-16 03:58:00,
2013-07-15 23:01:00,73.0,71.0,-100.00,ENE,70,0.0,4.0,93,0.00,,,0.08,0.000000,,2013-07-16 04:01:00,